sensor_id;sensor_type;location;lat;lon;timestamp;pressure;altitude;pressure_sealevel;temperature;humidity
65394;BME280;52002;49.760;6.512;2022-10-16T00:01:22;99688.03;;;14.46;81.24
65394;BME280;52002;49.760;6.512;2022-10-16T00:03:49;99683.00;;;14.47;81.21
65394;BME280;52002;49.760;6.512;2022-10-16T00:06:17;99686.69;;;14.50;81.30
65394;BME280;52002;49.760;6.512;2022-10-16T00:08:45;99688.37;;;14.51;81.34
65394;BME280;52002;49.760;6.512;2022-10-16T00:11:24;99690.02;;;14.52;81.31
65394;BME280;52002;49.760;6.512;2022-10-16T00:13:57;99684.98;;;14.53;81.25
65394;BME280;52002;49.760;6.512;2022-10-16T00:16:25;99685.98;;;14.56;81.18
65394;BME280;52002;49.760;6.512;2022-10-16T00:18:52;99694.39;;;14.61;81.03
65394;BME280;52002;49.760;6.512;2022-10-16T00:21:23;99688.00;;;14.62;81.08
65394;BME280;52002;49.760;6.512;2022-10-16T00:23:54;99699.23;;;14.62;81.08
65394;BME280;52002;49.760;6.512;2022-10-16T00:26:23;99690.02;;;14.64;81.15
65394;BME280;52002;49.760;6.512;2022-10-16T00:28:50;99686.66;;;14.66;81.11
65394;BME280;52002;49.760;6.512;2022-10-16T00:31:18;99687.67;;;14.69;81.02
65394;BME280;52002;49.760;6.512;2022-10-16T00:33:45;99681.95;;;14.72;80.91
65394;BME280;52002;49.760;6.512;2022-10-16T00:36:13;99691.70;;;14.74;80.93
65394;BME280;52002;49.760;6.512;2022-10-16T00:38:41;99693.38;;;14.75;81.06
65394;BME280;52002;49.760;6.512;2022-10-16T00:41:11;99696.73;;;14.77;80.99
65394;BME280;52002;49.760;6.512;2022-10-16T00:43:48;99677.25;;;14.79;80.91
65394;BME280;52002;49.760;6.512;2022-10-16T00:46:40;99680.27;;;14.80;80.84
65394;BME280;52002;49.760;6.512;2022-10-16T00:49:12;99680.77;;;14.79;80.75
65394;BME280;52002;49.760;6.512;2022-10-16T00:51:50;99695.73;;;14.74;80.59
65394;BME280;52002;49.760;6.512;2022-10-16T00:54:23;99695.21;;;14.66;80.79
65394;BME280;52002;49.760;6.512;2022-10-16T00:56:51;99711.52;;;14.64;81.10
65394;BME280;52002;49.760;6.512;2022-10-16T00:59:27;99725.28;;;14.61;81.22
65394;BME280;52002;49.760;6.512;2022-10-16T01:01:55;99718.23;;;14.60;81.46
65394;BME280;52002;49.760;6.512;2022-10-16T01:04:23;99710.69;;;14.60;81.57
65394;BME280;52002;49.760;6.512;2022-10-16T01:07:12;99707.30;;;14.62;81.64
65394;BME280;52002;49.760;6.512;2022-10-16T01:10:03;99696.06;;;14.66;81.55
65394;BME280;52002;49.760;6.512;2022-10-16T01:12:40;99712.89;;;14.68;81.39
65394;BME280;52002;49.760;6.512;2022-10-16T01:15:31;99706.47;;;14.74;81.57
65394;BME280;52002;49.760;6.512;2022-10-16T01:21:06;99738.53;;;14.79;81.65
65394;BME280;52002;49.760;6.512;2022-10-16T01:24:02;99732.48;;;14.81;81.54
65394;BME280;52002;49.760;6.512;2022-10-16T01:29:51;99728.64;;;14.80;81.15
65394;BME280;52002;49.760;6.512;2022-10-16T01:32:57;99730.66;;;14.78;81.17
65394;BME280;52002;49.760;6.512;2022-10-16T01:35:37;99724.95;;;14.81;81.38
65394;BME280;52002;49.760;6.512;2022-10-16T01:38:10;99723.08;;;14.85;81.48
65394;BME280;52002;49.760;6.512;2022-10-16T01:40:39;99718.19;;;14.89;81.60
65394;BME280;52002;49.760;6.512;2022-10-16T01:43:27;99719.53;;;14.93;81.70
65394;BME280;52002;49.760;6.512;2022-10-16T01:45:55;99720.69;;;14.95;81.64
65394;BME280;52002;49.760;6.512;2022-10-16T01:48:22;99712.48;;;14.96;81.70
65394;BME280;52002;49.760;6.512;2022-10-16T01:50:53;99723.22;;;15.00;81.77
65394;BME280;52002;49.760;6.512;2022-10-16T01:53:38;99745.40;;;15.02;81.54
65394;BME280;52002;49.760;6.512;2022-10-16T01:56:08;99746.23;;;15.03;81.68
65394;BME280;52002;49.760;6.512;2022-10-16T01:58:41;99729.58;;;15.03;81.66
65394;BME280;52002;49.760;6.512;2022-10-16T02:01:11;99726.25;;;15.01;81.42
65394;BME280;52002;49.760;6.512;2022-10-16T02:03:40;99720.35;;;15.02;81.53
65394;BME280;52002;49.760;6.512;2022-10-16T02:06:08;99703.73;;;15.02;81.60
65394;BME280;52002;49.760;6.512;2022-10-16T02:08:34;99715.12;;;15.05;81.62
65394;BME280;52002;49.760;6.512;2022-10-16T02:11:02;99722.17;;;15.06;81.66
65394;BME280;52002;49.760;6.512;2022-10-16T02:13:34;99729.75;;;15.06;81.65
65394;BME280;52002;49.760;6.512;2022-10-16T02:16:23;99725.23;;;15.02;81.62
65394;BME280;52002;49.760;6.512;2022-10-16T02:18:48;99728.27;;;14.99;81.72
65394;BME280;52002;49.760;6.512;2022-10-16T02:21:25;99721.20;;;14.98;81.67
65394;BME280;52002;49.760;6.512;2022-10-16T02:23:58;99713.14;;;14.98;81.73
65394;BME280;52002;49.760;6.512;2022-10-16T02:26:35;99712.96;;;15.00;81.71
65394;BME280;52002;49.760;6.512;2022-10-16T02:29:04;99705.08;;;14.98;81.64
65394;BME280;52002;49.760;6.512;2022-10-16T02:31:35;99712.48;;;14.96;81.68
65394;BME280;52002;49.760;6.512;2022-10-16T02:34:04;99719.87;;;14.94;81.70
65394;BME280;52002;49.760;6.512;2022-10-16T02:36:33;99721.89;;;14.92;81.69
65394;BME280;52002;49.760;6.512;2022-10-16T02:39:00;99718.19;;;14.89;81.73
65394;BME280;52002;49.760;6.512;2022-10-16T02:41:29;99715.84;;;14.86;81.85
65394;BME280;52002;49.760;6.512;2022-10-16T02:43:56;99726.29;;;14.85;81.94
65394;BME280;52002;49.760;6.512;2022-10-16T02:46:22;99734.84;;;14.84;82.08
65394;BME280;52002;49.760;6.512;2022-10-16T02:48:48;99740.89;;;14.86;82.18
65394;BME280;52002;49.760;6.512;2022-10-16T02:51:14;99741.37;;;14.86;82.25
65394;BME280;52002;49.760;6.512;2022-10-16T02:53:40;99738.69;;;14.86;82.33
65394;BME280;52002;49.760;6.512;2022-10-16T02:56:06;99727.11;;;14.90;82.37
65394;BME280;52002;49.760;6.512;2022-10-16T02:58:32;99730.62;;;14.94;82.38
65394;BME280;52002;49.760;6.512;2022-10-16T03:00:58;99726.25;;;14.97;82.23
65394;BME280;52002;49.760;6.512;2022-10-16T03:03:24;99732.63;;;15.00;82.34
65394;BME280;52002;49.760;6.512;2022-10-16T03:05:50;99726.89;;;15.03;82.27
65394;BME280;52002;49.760;6.512;2022-10-16T03:08:16;99732.27;;;15.03;82.00
65394;BME280;52002;49.760;6.512;2022-10-16T03:10:41;99722.86;;;15.03;82.02
65394;BME280;52002;49.760;6.512;2022-10-16T03:13:07;99733.61;;;15.03;82.04
65394;BME280;52002;49.760;6.512;2022-10-16T03:15:33;99737.30;;;15.07;82.08
65394;BME280;52002;49.760;6.512;2022-10-16T03:17:59;99744.88;;;15.11;82.20
65394;BME280;52002;49.760;6.512;2022-10-16T03:20:25;99742.00;;;15.13;82.07
65394;BME280;52002;49.760;6.512;2022-10-16T03:22:52;99738.97;;;15.16;82.04
65394;BME280;52002;49.760;6.512;2022-10-16T03:25:19;99730.23;;;15.18;82.03
65394;BME280;52002;49.760;6.512;2022-10-16T03:27:45;99735.61;;;15.18;82.01
65394;BME280;52002;49.760;6.512;2022-10-16T03:30:12;99731.91;;;15.15;81.84
65394;BME280;52002;49.760;6.512;2022-10-16T03:32:38;99731.39;;;15.15;81.79
65394;BME280;52002;49.760;6.512;2022-10-16T03:35:04;99741.66;;;15.16;81.64
65394;BME280;52002;49.760;6.512;2022-10-16T03:37:31;99740.98;;;15.14;81.59
65394;BME280;52002;49.760;6.512;2022-10-16T03:39:57;99746.38;;;15.10;81.70
65394;BME280;52002;49.760;6.512;2022-10-16T03:42:23;99746.38;;;15.10;81.95
65394;BME280;52002;49.760;6.512;2022-10-16T03:44:49;99747.04;;;15.12;82.03
65394;BME280;52002;49.760;6.512;2022-10-16T03:47:15;99749.05;;;15.14;81.90
65394;BME280;52002;49.760;6.512;2022-10-16T03:49:43;99750.73;;;15.15;81.87
65394;BME280;52002;49.760;6.512;2022-10-16T03:52:09;99755.44;;;15.17;81.88
65394;BME280;52002;49.760;6.512;2022-10-16T03:54:35;99753.42;;;15.19;81.94
65394;BME280;52002;49.760;6.512;2022-10-16T03:57:00;99761.15;;;15.18;81.77
65394;BME280;52002;49.760;6.512;2022-10-16T03:59:26;99746.18;;;15.15;81.89
65394;BME280;52002;49.760;6.512;2022-10-16T04:01:52;99752.41;;;15.16;81.96
65394;BME280;52002;49.760;6.512;2022-10-16T04:04:18;99750.20;;;15.20;82.01
65394;BME280;52002;49.760;6.512;2022-10-16T04:06:44;99743.63;;;15.22;81.94
65394;BME280;52002;49.760;6.512;2022-10-16T04:09:10;99752.37;;;15.24;81.85
65394;BME280;52002;49.760;6.512;2022-10-16T04:11:35;99745.64;;;15.24;81.78
65394;BME280;52002;49.760;6.512;2022-10-16T04:14:01;99756.07;;;15.23;81.64
65394;BME280;52002;49.760;6.512;2022-10-16T04:16:28;99760.97;;;15.20;81.72
65394;BME280;52002;49.760;6.512;2022-10-16T04:18:53;99760.45;;;15.20;81.90
65394;BME280;52002;49.760;6.512;2022-10-16T04:21:20;99761.78;;;15.24;81.88
65394;BME280;52002;49.760;6.512;2022-10-16T04:23:46;99763.80;;;15.26;81.90
65394;BME280;52002;49.760;6.512;2022-10-16T04:26:12;99753.70;;;15.28;81.86
65394;BME280;52002;49.760;6.512;2022-10-16T04:28:38;99757.40;;;15.31;81.81
65394;BME280;52002;49.760;6.512;2022-10-16T04:31:05;99768.98;;;15.32;81.73
65394;BME280;52002;49.760;6.512;2022-10-16T04:33:32;99769.02;;;15.28;81.59
65394;BME280;52002;49.760;6.512;2022-10-16T04:36:00;99778.25;;;15.25;81.68
65394;BME280;52002;49.760;6.512;2022-10-16T04:38:27;99775.41;;;15.27;81.75
65394;BME280;52002;49.760;6.512;2022-10-16T04:40:54;99783.29;;;15.28;81.82
65394;BME280;52002;49.760;6.512;2022-10-16T04:43:20;99796.06;;;15.26;81.66
65394;BME280;52002;49.760;6.512;2022-10-16T04:45:47;99803.47;;;15.24;81.66
65394;BME280;52002;49.760;6.512;2022-10-16T04:48:13;99803.80;;;15.21;81.77
65394;BME280;52002;49.760;6.512;2022-10-16T04:50:38;99798.09;;;15.20;81.87
65394;BME280;52002;49.760;6.512;2022-10-16T04:53:05;99799.44;;;15.20;81.90
65394;BME280;52002;49.760;6.512;2022-10-16T04:55:32;99798.77;;;15.22;82.00
65394;BME280;52002;49.760;6.512;2022-10-16T04:57:58;99800.29;;;15.25;82.02
65394;BME280;52002;49.760;6.512;2022-10-16T05:00:24;99804.13;;;15.26;81.90
65394;BME280;52002;49.760;6.512;2022-10-16T05:02:50;99797.26;;;15.28;81.73
65394;BME280;52002;49.760;6.512;2022-10-16T05:05:17;99792.03;;;15.26;81.57
65394;BME280;52002;49.760;6.512;2022-10-16T05:07:46;99800.78;;;15.24;81.83
65394;BME280;52002;49.760;6.512;2022-10-16T05:10:12;99800.78;;;15.24;81.87
65394;BME280;52002;49.760;6.512;2022-10-16T05:12:39;99813.22;;;15.21;81.67
65394;BME280;52002;49.760;6.512;2022-10-16T05:17:35;99824.64;;;15.31;81.96
65394;BME280;52002;49.760;6.512;2022-10-16T05:20:01;99832.38;;;15.30;81.95
65394;BME280;52002;49.760;6.512;2022-10-16T05:22:28;99817.06;;;15.31;81.75
65394;BME280;52002;49.760;6.512;2022-10-16T05:24:55;99818.41;;;15.31;81.72
65394;BME280;52002;49.760;6.512;2022-10-16T05:27:20;99817.06;;;15.31;81.72
65394;BME280;52002;49.760;6.512;2022-10-16T05:29:47;99823.97;;;15.33;81.68
65394;BME280;52002;49.760;6.512;2022-10-16T05:32:15;99816.72;;;15.34;81.48
65394;BME280;52002;49.760;6.512;2022-10-16T05:34:43;99808.98;;;15.31;81.40
65394;BME280;52002;49.760;6.512;2022-10-16T05:37:10;99812.88;;;15.32;81.65
65394;BME280;52002;49.760;6.512;2022-10-16T05:39:37;99829.01;;;15.32;81.80
65394;BME280;52002;49.760;6.512;2022-10-16T05:42:04;99831.36;;;15.31;81.67
65394;BME280;52002;49.760;6.512;2022-10-16T05:44:31;99828.34;;;15.30;81.60
65394;BME280;52002;49.760;6.512;2022-10-16T05:46:57;99818.06;;;15.30;81.66
65394;BME280;52002;49.760;6.512;2022-10-16T05:49:23;99823.30;;;15.31;81.73
65394;BME280;52002;49.760;6.512;2022-10-16T05:51:49;99823.97;;;15.33;81.66
65394;BME280;52002;49.760;6.512;2022-10-16T05:54:15;99830.02;;;15.36;81.67
65394;BME280;52002;49.760;6.512;2022-10-16T05:56:40;99832.03;;;15.33;81.65
65394;BME280;52002;49.760;6.512;2022-10-16T05:59:06;99837.56;;;15.32;81.58
65394;BME280;52002;49.760;6.512;2022-10-16T06:01:32;99839.43;;;15.31;81.68
65394;BME280;52002;49.760;6.512;2022-10-16T06:03:59;99837.41;;;15.33;81.65
65394;BME280;52002;49.760;6.512;2022-10-16T06:06:26;99830.35;;;15.37;81.76
65394;BME280;52002;49.760;6.512;2022-10-16T06:08:54;99836.70;;;15.40;81.70
65394;BME280;52002;49.760;6.512;2022-10-16T06:11:26;99831.66;;;15.41;81.58
65394;BME280;52002;49.760;6.512;2022-10-16T06:13:56;99834.02;;;15.40;81.33
65394;BME280;52002;49.760;6.512;2022-10-16T06:16:25;99824.97;;;15.32;81.18
65394;BME280;52002;49.760;6.512;2022-10-16T06:18:52;99837.08;;;15.32;81.48
65394;BME280;52002;49.760;6.512;2022-10-16T06:21:23;99839.92;;;15.35;81.59
65394;BME280;52002;49.760;6.512;2022-10-16T06:23:50;99843.46;;;15.36;81.43
65394;BME280;52002;49.760;6.512;2022-10-16T06:26:19;99843.95;;;15.35;81.42
65394;BME280;52002;49.760;6.512;2022-10-16T06:28:46;99853.89;;;15.35;81.46
65394;BME280;52002;49.760;6.512;2022-10-16T06:31:14;99861.63;;;15.33;81.57
65394;BME280;52002;49.760;6.512;2022-10-16T06:33:41;99864.31;;;15.33;81.60
65394;BME280;52002;49.760;6.512;2022-10-16T06:36:09;99869.02;;;15.31;81.62
65394;BME280;52002;49.760;6.512;2022-10-16T06:38:37;99873.39;;;15.32;81.65
65394;BME280;52002;49.760;6.512;2022-10-16T06:41:05;99882.80;;;15.37;81.73
65394;BME280;52002;49.760;6.512;2022-10-16T06:43:32;99883.44;;;15.39;81.66
65394;BME280;52002;49.760;6.512;2022-10-16T06:46:01;99885.13;;;15.44;81.53
65394;BME280;52002;49.760;6.512;2022-10-16T06:48:29;99884.45;;;15.46;81.37
65394;BME280;52002;49.760;6.512;2022-10-16T06:53:42;99896.22;;;15.53;81.30
65394;BME280;52002;49.760;6.512;2022-10-16T06:58:42;99904.11;;;15.55;81.14
65394;BME280;52002;49.760;6.512;2022-10-16T07:01:09;99903.92;;;15.56;81.18
65394;BME280;52002;49.760;6.512;2022-10-16T07:03:37;99906.94;;;15.61;81.42
65394;BME280;52002;49.760;6.512;2022-10-16T07:06:06;99905.75;;;15.68;81.51
65394;BME280;52002;49.760;6.512;2022-10-16T07:08:39;99910.94;;;15.74;81.34
65394;BME280;52002;49.760;6.512;2022-10-16T07:11:12;99920.02;;;15.77;81.14
65394;BME280;52002;49.760;6.512;2022-10-16T07:13:41;99922.03;;;15.79;80.88
65394;BME280;52002;49.760;6.512;2022-10-16T07:16:12;99929.77;;;15.82;80.80
65394;BME280;52002;49.760;6.512;2022-10-16T07:18:40;99935.85;;;15.88;81.00
65394;BME280;52002;49.760;6.512;2022-10-16T07:21:13;99947.25;;;15.99;81.13
65394;BME280;52002;49.760;6.512;2022-10-16T07:23:44;99948.92;;;16.04;81.03
65394;BME280;52002;49.760;6.512;2022-10-16T07:26:11;99957.97;;;16.11;80.94
65394;BME280;52002;49.760;6.512;2022-10-16T07:28:37;99966.04;;;16.15;80.91
65394;BME280;52002;49.760;6.512;2022-10-16T07:31:08;99965.98;;;16.23;80.33
65394;BME280;52002;49.760;6.512;2022-10-16T07:33:39;99965.98;;;16.23;80.33
65394;BME280;52002;49.760;6.512;2022-10-16T07:36:08;99972.38;;;16.27;80.18
65394;BME280;52002;49.760;6.512;2022-10-16T07:38:34;99967.99;;;16.30;80.12
65394;BME280;52002;49.760;6.512;2022-10-16T07:41:03;99968.32;;;16.35;80.22
65394;BME280;52002;49.760;6.512;2022-10-16T07:43:30;99973.98;;;16.44;80.16
65394;BME280;52002;49.760;6.512;2022-10-16T07:45:57;99981.38;;;16.50;80.10
65394;BME280;52002;49.760;6.512;2022-10-16T07:48:24;99984.87;;;16.59;80.01
65394;BME280;52002;49.760;6.512;2022-10-16T07:50:59;99982.66;;;16.63;79.78
65394;BME280;52002;49.760;6.512;2022-10-16T07:53:26;99990.72;;;16.67;79.62
65394;BME280;52002;49.760;6.512;2022-10-16T07:55:56;99988.36;;;16.68;79.52
65394;BME280;52002;49.760;6.512;2022-10-16T07:58:28;100002.85;;;16.67;79.50
65394;BME280;52002;49.760;6.512;2022-10-16T08:00:55;100008.41;;;16.65;79.40
65394;BME280;52002;49.760;6.512;2022-10-16T08:03:23;100013.98;;;16.64;79.26
65394;BME280;52002;49.760;6.512;2022-10-16T08:05:50;100016.36;;;16.59;79.37
65394;BME280;52002;49.760;6.512;2022-10-16T08:08:17;100019.77;;;16.57;79.40
65394;BME280;52002;49.760;6.512;2022-10-16T08:10:43;100012.36;;;16.54;79.49
65394;BME280;52002;49.760;6.512;2022-10-16T08:13:10;100016.06;;;16.53;79.62
65394;BME280;52002;49.760;6.512;2022-10-16T08:15:36;100021.27;;;16.55;79.48
65394;BME280;52002;49.760;6.512;2022-10-16T08:18:04;100030.84;;;16.58;79.20
65394;BME280;52002;49.760;6.512;2022-10-16T08:20:31;100029.83;;;16.59;79.33
65394;BME280;52002;49.760;6.512;2022-10-16T08:22:59;100022.73;;;16.66;79.54
65394;BME280;52002;49.760;6.512;2022-10-16T08:25:26;100025.38;;;16.74;79.50
65394;BME280;52002;49.760;6.512;2022-10-16T08:27:53;100018.27;;;16.81;79.28
65394;BME280;52002;49.760;6.512;2022-10-16T08:30:20;100028.52;;;16.86;79.02
65394;BME280;52002;49.760;6.512;2022-10-16T08:32:47;100030.86;;;16.89;79.08
65394;BME280;52002;49.760;6.512;2022-10-16T08:35:15;100034.03;;;17.01;78.97
65394;BME280;52002;49.760;6.512;2022-10-16T08:37:42;100039.96;;;17.24;78.64
65394;BME280;52002;49.760;6.512;2022-10-16T08:40:26;100034.94;;;17.40;78.41
65394;BME280;52002;49.760;6.512;2022-10-16T08:48:57;100054.91;;;17.54;77.48
65394;BME280;52002;49.760;6.512;2022-10-16T08:51:36;100065.04;;;17.52;77.30
65394;BME280;52002;49.760;6.512;2022-10-16T08:54:08;100060.47;;;17.52;77.37
65394;BME280;52002;49.760;6.512;2022-10-16T08:56:38;100066.23;;;17.72;77.42
65394;BME280;52002;49.760;6.512;2022-10-16T08:59:06;100063.38;;;17.89;76.96
65394;BME280;52002;49.760;6.512;2022-10-16T09:01:41;100061.11;;;18.01;76.65
65394;BME280;52002;49.760;6.512;2022-10-16T09:05:02;100056.46;;;18.10;76.32
65394;BME280;52002;49.760;6.512;2022-10-16T09:07:14;100048.98;;;18.12;76.13
65394;BME280;52002;49.760;6.512;2022-10-16T09:10:21;100036.20;;;18.10;75.80
65394;BME280;52002;49.760;6.512;2022-10-16T09:12:30;100041.44;;;18.07;75.76
65394;BME280;52002;49.760;6.512;2022-10-16T09:15:23;100061.73;;;18.03;75.59
65394;BME280;52002;49.760;6.512;2022-10-16T09:21:25;100073.95;;;17.99;75.94
65394;BME280;52002;49.760;6.512;2022-10-16T09:23:56;100078.66;;;17.97;75.72
65394;BME280;52002;49.760;6.512;2022-10-16T09:26:23;100082.42;;;17.92;75.90
65394;BME280;52002;49.760;6.512;2022-10-16T09:28:52;100090.98;;;17.99;76.34
65394;BME280;52002;49.760;6.512;2022-10-16T09:31:20;100097.15;;;18.08;76.00
65394;BME280;52002;49.760;6.512;2022-10-16T09:33:57;100089.11;;;18.19;75.67
65394;BME280;52002;49.760;6.512;2022-10-16T09:36:27;100095.98;;;18.41;75.56
65394;BME280;52002;49.760;6.512;2022-10-16T09:39:06;100104.36;;;18.61;75.00
65394;BME280;52002;49.760;6.512;2022-10-16T09:41:44;100094.24;;;18.74;74.76
65394;BME280;52002;49.760;6.512;2022-10-16T09:44:19;100082.23;;;18.87;74.73
65394;BME280;52002;49.760;6.512;2022-10-16T09:47:05;100077.00;;;19.01;74.34
65394;BME280;52002;49.760;6.512;2022-10-16T09:49:54;100068.79;;;19.09;73.56
65394;BME280;52002;49.760;6.512;2022-10-16T09:52:30;100060.16;;;19.20;73.23
65394;BME280;52002;49.760;6.512;2022-10-16T09:54:59;100057.58;;;19.55;72.93
65394;BME280;52002;49.760;6.512;2022-10-16T09:57:27;100052.92;;;19.93;72.54
65394;BME280;52002;49.760;6.512;2022-10-16T09:59:55;100052.94;;;20.10;71.98
65394;BME280;52002;49.760;6.512;2022-10-16T10:02:37;100061.44;;;20.18;71.84
65394;BME280;52002;49.760;6.512;2022-10-16T10:05:02;100063.22;;;20.22;70.59
65394;BME280;52002;49.760;6.512;2022-10-16T10:07:37;100067.92;;;20.24;70.39
65394;BME280;52002;49.760;6.512;2022-10-16T10:10:16;100066.22;;;20.34;70.47
65394;BME280;52002;49.760;6.512;2022-10-16T10:12:47;100070.89;;;20.46;70.15
65394;BME280;52002;49.760;6.512;2022-10-16T10:15:14;100069.31;;;20.48;69.99
65394;BME280;52002;49.760;6.512;2022-10-16T10:17:49;100072.27;;;20.53;69.64
65394;BME280;52002;49.760;6.512;2022-10-16T10:23:00;100058.30;;;20.32;69.46
65394;BME280;52002;49.760;6.512;2022-10-16T10:29:03;100059.81;;;19.95;69.15
65394;BME280;52002;49.760;6.512;2022-10-16T10:37:04;100070.87;;;20.11;69.25
65394;BME280;52002;49.760;6.512;2022-10-16T10:39:41;100074.31;;;20.27;68.90
65394;BME280;52002;49.760;6.512;2022-10-16T10:45:13;100085.55;;;20.24;68.77
65394;BME280;52002;49.760;6.512;2022-10-16T10:56:16;100076.06;;;20.24;68.88
65394;BME280;52002;49.760;6.512;2022-10-16T10:59:11;100084.13;;;20.28;68.66
65394;BME280;52002;49.760;6.512;2022-10-16T11:01:55;100084.26;;;20.20;68.61
65394;BME280;52002;49.760;6.512;2022-10-16T11:04:33;100086.42;;;20.13;68.97
65394;BME280;52002;49.760;6.512;2022-10-16T11:07:34;100083.30;;;20.16;68.64
65394;BME280;52002;49.760;6.512;2022-10-16T11:10:18;100082.98;;;20.33;68.45
65394;BME280;52002;49.760;6.512;2022-10-16T11:12:46;100095.75;;;20.39;68.02
65394;BME280;52002;49.760;6.512;2022-10-16T11:15:21;100096.06;;;20.23;67.93
65394;BME280;52002;49.760;6.512;2022-10-16T11:18:11;100097.35;;;20.27;68.12
65394;BME280;52002;49.760;6.512;2022-10-16T11:21:04;100088.10;;;20.14;68.35
65394;BME280;52002;49.760;6.512;2022-10-16T11:23:41;100094.30;;;20.08;68.20
65394;BME280;52002;49.760;6.512;2022-10-16T11:26:21;100088.40;;;19.98;68.57
65394;BME280;52002;49.760;6.512;2022-10-16T11:28:56;100086.08;;;19.95;68.93
65394;BME280;52002;49.760;6.512;2022-10-16T11:31:33;100092.31;;;19.95;68.72
65394;BME280;52002;49.760;6.512;2022-10-16T11:37:09;100095.49;;;20.16;68.88
65394;BME280;52002;49.760;6.512;2022-10-16T11:39:38;100098.39;;;20.26;68.67
65394;BME280;52002;49.760;6.512;2022-10-16T11:42:30;100093.75;;;20.20;68.66
65394;BME280;52002;49.760;6.512;2022-10-16T11:47:48;100091.11;;;19.98;68.70
65394;BME280;52002;49.760;6.512;2022-10-16T11:50:25;100090.20;;;19.91;69.18
65394;BME280;52002;49.760;6.512;2022-10-16T11:55:31;100096.66;;;19.90;69.45
65394;BME280;52002;49.760;6.512;2022-10-16T12:09:21;100093.30;;;19.88;69.90
65394;BME280;52002;49.760;6.512;2022-10-16T12:11:49;100079.53;;;20.00;69.81
65394;BME280;52002;49.760;6.512;2022-10-16T12:22:49;100080.80;;;20.15;69.72
65394;BME280;52002;49.760;6.512;2022-10-16T12:25:33;100078.62;;;20.14;69.62
65394;BME280;52002;49.760;6.512;2022-10-16T12:30:43;100073.27;;;20.10;69.71
65394;BME280;52002;49.760;6.512;2022-10-16T12:33:30;100077.01;;;20.09;69.97
65394;BME280;52002;49.760;6.512;2022-10-16T12:36:00;100074.90;;;20.05;69.52
65394;BME280;52002;49.760;6.512;2022-10-16T12:38:38;100076.32;;;20.00;69.66
65394;BME280;52002;49.760;6.512;2022-10-16T12:41:34;100082.98;;;19.98;70.21
65394;BME280;52002;49.760;6.512;2022-10-16T12:43:54;100083.37;;;19.95;70.01
65394;BME280;52002;49.760;6.512;2022-10-16T12:46:24;100082.47;;;19.88;69.91
65394;BME280;52002;49.760;6.512;2022-10-16T12:51:42;100075.83;;;19.68;70.27
65394;BME280;52002;49.760;6.512;2022-10-16T12:54:17;100080.39;;;19.57;70.54
65394;BME280;52002;49.760;6.512;2022-10-16T12:57:09;100078.98;;;19.50;71.17
65394;BME280;52002;49.760;6.512;2022-10-16T13:11:57;100079.83;;;19.40;72.25
65394;BME280;52002;49.760;6.512;2022-10-16T13:20:28;100080.73;;;19.36;71.83
65394;BME280;52002;49.760;6.512;2022-10-16T13:23:22;100079.56;;;19.35;71.91
65394;BME280;52002;49.760;6.512;2022-10-16T13:25:53;100075.77;;;19.40;72.36
65394;BME280;52002;49.760;6.512;2022-10-16T13:28:35;100073.66;;;19.46;72.55
65394;BME280;52002;49.760;6.512;2022-10-16T13:31:03;100076.80;;;19.50;72.69
65394;BME280;52002;49.760;6.512;2022-10-16T13:33:38;100086.28;;;19.50;72.68
65394;BME280;52002;49.760;6.512;2022-10-16T13:36:06;100074.92;;;19.50;72.59
65394;BME280;52002;49.760;6.512;2022-10-16T13:38:34;100069.50;;;19.50;72.65
65394;BME280;52002;49.760;6.512;2022-10-16T13:41:05;100074.03;;;19.54;72.81
65394;BME280;52002;49.760;6.512;2022-10-16T13:43:51;100069.33;;;19.63;72.76
65394;BME280;52002;49.760;6.512;2022-10-16T13:46:21;100071.88;;;19.71;72.45
65394;BME280;52002;49.760;6.512;2022-10-16T13:49:14;100068.47;;;19.73;72.47
65394;BME280;52002;49.760;6.512;2022-10-16T13:52:05;100070.14;;;19.74;72.43
65394;BME280;52002;49.760;6.512;2022-10-16T13:54:16;100074.80;;;19.69;72.64
65394;BME280;52002;49.760;6.512;2022-10-16T13:56:42;100069.50;;;19.61;72.73
65394;BME280;52002;49.760;6.512;2022-10-16T13:59:23;100064.03;;;19.54;72.93
65394;BME280;52002;49.760;6.512;2022-10-16T14:01:56;100061.37;;;19.50;73.04
65394;BME280;52002;49.760;6.512;2022-10-16T14:04:27;100067.97;;;19.52;72.98
65394;BME280;52002;49.760;6.512;2022-10-16T14:06:55;100064.94;;;19.51;72.96
65394;BME280;52002;49.760;6.512;2022-10-16T14:09:29;100060.17;;;19.53;73.13
65394;BME280;52002;49.760;6.512;2022-10-16T14:11:58;100062.67;;;19.54;73.15
65394;BME280;52002;49.760;6.512;2022-10-16T14:14:35;100058.61;;;19.54;73.10
65394;BME280;52002;49.760;6.512;2022-10-16T14:17:16;100052.23;;;19.51;73.03
65394;BME280;52002;49.760;6.512;2022-10-16T14:19:53;100062.73;;;19.50;72.81
65394;BME280;52002;49.760;6.512;2022-10-16T14:22:36;100052.94;;;19.49;72.87
65394;BME280;52002;49.760;6.512;2022-10-16T14:25:26;100043.78;;;19.50;72.90
65394;BME280;52002;49.760;6.512;2022-10-16T14:28:15;100055.97;;;19.50;73.01
65394;BME280;52002;49.760;6.512;2022-10-16T14:33:31;100040.80;;;19.67;72.92
65394;BME280;52002;49.760;6.512;2022-10-16T14:38:42;100054.75;;;20.03;72.61
65394;BME280;52002;49.760;6.512;2022-10-16T14:41:10;100058.69;;;20.11;72.34
65394;BME280;52002;49.760;6.512;2022-10-16T14:43:41;100058.04;;;20.09;72.19
65394;BME280;52002;49.760;6.512;2022-10-16T14:46:17;100055.47;;;20.01;72.07
65394;BME280;52002;49.760;6.512;2022-10-16T14:48:49;100050.39;;;19.91;72.15
65394;BME280;52002;49.760;6.512;2022-10-16T14:51:17;100053.83;;;19.78;72.51
65394;BME280;52002;49.760;6.512;2022-10-16T14:53:44;100055.31;;;19.70;72.66
65394;BME280;52002;49.760;6.512;2022-10-16T14:56:23;100055.78;;;19.63;72.76
65394;BME280;52002;49.760;6.512;2022-10-16T14:58:51;100049.99;;;19.55;72.89
65394;BME280;52002;49.760;6.512;2022-10-16T15:01:18;100057.70;;;19.47;73.10